sensor_id;sensor_type;location;lat;lon;timestamp;pressure;altitude;pressure_sealevel;temperature;humidity
10978;BME280;5542;48.272;10.794;2022-12-07T00:00:17;95621.78;;;2.66;89.81
10978;BME280;5542;48.272;10.794;2022-12-07T00:02:44;95619.19;;;2.66;89.93
10978;BME280;5542;48.272;10.794;2022-12-07T00:05:10;95618.22;;;2.67;89.69
10978;BME280;5542;48.272;10.794;2022-12-07T00:07:37;95618.00;;;2.69;89.75
10978;BME280;5542;48.272;10.794;2022-12-07T00:10:05;95617.22;;;2.68;89.78
10978;BME280;5542;48.272;10.794;2022-12-07T00:12:32;95618.22;;;2.67;89.88
10978;BME280;5542;48.272;10.794;2022-12-07T00:15:00;95618.81;;;2.69;89.85
10978;BME280;5542;48.272;10.794;2022-12-07T00:17:26;95616.22;;;2.69;89.79
10978;BME280;5542;48.272;10.794;2022-12-07T00:19:53;95611.03;;;2.69;89.79
10978;BME280;5542;48.272;10.794;2022-12-07T00:22:20;95612.22;;;2.67;89.75
10978;BME280;5542;48.272;10.794;2022-12-07T00:24:46;95614.63;;;2.68;89.89
10978;BME280;5542;48.272;10.794;2022-12-07T00:27:13;95614.16;;;2.65;89.69
10978;BME280;5542;48.272;10.794;2022-12-07T00:29:39;95613.56;;;2.63;89.89
10978;BME280;5542;48.272;10.794;2022-12-07T00:32:07;95617.16;;;2.62;90.09
10978;BME280;5542;48.272;10.794;2022-12-07T00:34:34;95616.16;;;2.63;90.17
10978;BME280;5542;48.272;10.794;2022-12-07T00:37:00;95619.34;;;2.65;90.17
10978;BME280;5542;48.272;10.794;2022-12-07T00:39:27;95611.75;;;2.63;90.21
10978;BME280;5542;48.272;10.794;2022-12-07T00:41:54;95611.56;;;2.65;90.27
10978;BME280;5542;48.272;10.794;2022-12-07T00:44:20;95615.97;;;2.64;90.31
10978;BME280;5542;48.272;10.794;2022-12-07T00:46:47;95609.78;;;2.65;90.46
10978;BME280;5542;48.272;10.794;2022-12-07T00:49:15;95608.28;;;2.71;90.13
10978;BME280;5542;48.272;10.794;2022-12-07T00:51:41;95611.81;;;2.70;89.68
10978;BME280;5542;48.272;10.794;2022-12-07T00:54:08;95603.88;;;2.71;89.68
10978;BME280;5542;48.272;10.794;2022-12-07T00:56:34;95603.88;;;2.71;89.54
10978;BME280;5542;48.272;10.794;2022-12-07T00:59:03;95611.03;;;2.69;89.56
10978;BME280;5542;48.272;10.794;2022-12-07T01:01:32;95608.44;;;2.69;89.67
10978;BME280;5542;48.272;10.794;2022-12-07T01:04:00;95610.03;;;2.70;89.79
10978;BME280;5542;48.272;10.794;2022-12-07T01:06:29;95608.63;;;2.68;89.37
10978;BME280;5542;48.272;10.794;2022-12-07T01:08:56;95596.88;;;2.72;89.32
10978;BME280;5542;48.272;10.794;2022-12-07T01:11:24;95606.81;;;2.68;88.74
10978;BME280;5542;48.272;10.794;2022-12-07T01:13:53;95605.22;;;2.67;88.99
10978;BME280;5542;48.272;10.794;2022-12-07T01:16:22;95606.38;;;2.65;89.26
10978;BME280;5542;48.272;10.794;2022-12-07T01:18:51;95610.97;;;2.63;89.28
10978;BME280;5542;48.272;10.794;2022-12-07T01:21:20;95611.50;;;2.58;89.61
10978;BME280;5542;48.272;10.794;2022-12-07T01:23:48;95610.31;;;2.61;89.33
10978;BME280;5542;48.272;10.794;2022-12-07T01:26:18;95606.13;;;2.60;89.25
10978;BME280;5542;48.272;10.794;2022-12-07T01:28:45;95602.28;;;2.55;89.34
10978;BME280;5542;48.272;10.794;2022-12-07T01:31:13;95613.84;;;2.53;89.52
10978;BME280;5542;48.272;10.794;2022-12-07T01:33:42;95614.00;;;2.51;89.82
10978;BME280;5542;48.272;10.794;2022-12-07T01:36:14;95606.41;;;2.50;90.17
10978;BME280;5542;48.272;10.794;2022-12-07T01:38:41;95609.19;;;2.48;90.07
10978;BME280;5542;48.272;10.794;2022-12-07T01:41:10;95609.63;;;2.52;90.36
10978;BME280;5542;48.272;10.794;2022-12-07T01:44:07;95606.84;;;2.53;90.38
10978;BME280;5542;48.272;10.794;2022-12-07T01:46:35;95604.69;;;2.57;90.50
10978;BME280;5542;48.272;10.794;2022-12-07T01:49:02;95605.66;;;2.56;89.93
10978;BME280;5542;48.272;10.794;2022-12-07T01:51:32;95606.84;;;2.53;89.58
10978;BME280;5542;48.272;10.794;2022-12-07T01:54:00;95605.41;;;2.51;89.13
10978;BME280;5542;48.272;10.794;2022-12-07T01:56:29;95601.19;;;2.50;89.13
10978;BME280;5542;48.272;10.794;2022-12-07T01:58:58;95596.19;;;2.48;89.73
10978;BME280;5542;48.272;10.794;2022-12-07T02:01:26;95596.56;;;2.45;89.53
10978;BME280;5542;48.272;10.794;2022-12-07T02:03:53;95601.94;;;2.44;89.51
10978;BME280;5542;48.272;10.794;2022-12-07T02:06:24;95592.53;;;2.43;89.83
10978;BME280;5542;48.272;10.794;2022-12-07T02:08:51;95597.75;;;2.43;89.70
10978;BME280;5542;48.272;10.794;2022-12-07T02:11:19;95605.25;;;2.38;89.95
10978;BME280;5542;48.272;10.794;2022-12-07T02:13:47;95603.63;;;2.37;90.07
10978;BME280;5542;48.272;10.794;2022-12-07T02:16:24;95601.41;;;2.34;90.37
10978;BME280;5542;48.272;10.794;2022-12-07T02:19:03;95605.34;;;2.29;90.58
10978;BME280;5542;48.272;10.794;2022-12-07T02:21:39;95596.38;;;2.32;90.70
10978;BME280;5542;48.272;10.794;2022-12-07T02:24:30;95600.75;;;2.31;90.27
10978;BME280;5542;48.272;10.794;2022-12-07T02:27:16;95600.50;;;2.26;90.58
10978;BME280;5542;48.272;10.794;2022-12-07T02:29:54;95600.50;;;2.26;90.87
10978;BME280;5542;48.272;10.794;2022-12-07T02:32:27;95603.19;;;2.33;90.79
10978;BME280;5542;48.272;10.794;2022-12-07T02:34:59;95594.78;;;2.31;90.76
10978;BME280;5542;48.272;10.794;2022-12-07T02:37:36;95594.59;;;2.33;91.08
10978;BME280;5542;48.272;10.794;2022-12-07T02:40:09;95600.22;;;2.36;90.83
10978;BME280;5542;48.272;10.794;2022-12-07T02:42:40;95598.44;;;2.37;90.78
10978;BME280;5542;48.272;10.794;2022-12-07T02:45:11;95595.75;;;2.45;90.23
10978;BME280;5542;48.272;10.794;2022-12-07T02:47:41;95592.09;;;2.39;90.57
10978;BME280;5542;48.272;10.794;2022-12-07T02:50:10;95587.69;;;2.40;90.68
10978;BME280;5542;48.272;10.794;2022-12-07T02:52:37;95583.97;;;2.42;90.54
10978;BME280;5542;48.272;10.794;2022-12-07T02:55:04;95588.97;;;2.44;90.37
10978;BME280;5542;48.272;10.794;2022-12-07T02:57:42;95593.16;;;2.45;90.14
10978;BME280;5542;48.272;10.794;2022-12-07T03:00:15;95587.69;;;2.40;90.10
10978;BME280;5542;48.272;10.794;2022-12-07T03:02:52;95589.03;;;2.36;89.86
10978;BME280;5542;48.272;10.794;2022-12-07T03:05:42;95585.38;;;2.30;89.99
10978;BME280;5542;48.272;10.794;2022-12-07T03:08:15;95592.97;;;2.31;90.33
10978;BME280;5542;48.272;10.794;2022-12-07T03:10:53;95593.34;;;2.28;90.73
10978;BME280;5542;48.272;10.794;2022-12-07T03:13:24;95587.63;;;2.33;90.95
10978;BME280;5542;48.272;10.794;2022-12-07T03:15:56;95582.06;;;2.36;90.86
10978;BME280;5542;48.272;10.794;2022-12-07T03:18:26;95583.06;;;2.35;91.13
10978;BME280;5542;48.272;10.794;2022-12-07T03:20:57;95588.44;;;2.34;91.08
10978;BME280;5542;48.272;10.794;2022-12-07T03:23:28;95583.50;;;2.39;91.03
10978;BME280;5542;48.272;10.794;2022-12-07T03:26:00;95590.28;;;2.40;90.90
10978;BME280;5542;48.272;10.794;2022-12-07T03:28:30;95585.91;;;2.40;90.84
10978;BME280;5542;48.272;10.794;2022-12-07T03:31:02;95587.09;;;2.38;90.76
10978;BME280;5542;48.272;10.794;2022-12-07T03:33:34;95589.50;;;2.39;90.46
10978;BME280;5542;48.272;10.794;2022-12-07T03:36:06;95587.44;;;2.35;90.34
10978;BME280;5542;48.272;10.794;2022-12-07T03:38:38;95583.06;;;2.35;90.60
10978;BME280;5542;48.272;10.794;2022-12-07T03:41:09;95584.38;;;2.31;91.06
10978;BME280;5542;48.272;10.794;2022-12-07T03:43:39;95584.84;;;2.35;91.18
10978;BME280;5542;48.272;10.794;2022-12-07T03:46:15;95574.72;;;2.40;90.41
10978;BME280;5542;48.272;10.794;2022-12-07T03:48:54;95574.28;;;2.36;90.86
10978;BME280;5542;48.272;10.794;2022-12-07T03:51:26;95580.66;;;2.34;90.88
10978;BME280;5542;48.272;10.794;2022-12-07T03:53:58;95583.41;;;2.32;90.93
10978;BME280;5542;48.272;10.794;2022-12-07T03:56:27;95576.41;;;2.33;91.32
10978;BME280;5542;48.272;10.794;2022-12-07T03:58:55;95574.97;;;2.45;90.91
10978;BME280;5542;48.272;10.794;2022-12-07T04:01:24;95576.97;;;2.43;90.50
10978;BME280;5542;48.272;10.794;2022-12-07T04:03:51;95585.72;;;2.42;90.30
10978;BME280;5542;48.272;10.794;2022-12-07T04:06:17;95588.06;;;2.37;90.63
10978;BME280;5542;48.272;10.794;2022-12-07T04:08:44;95585.72;;;2.42;90.66
10978;BME280;5542;48.272;10.794;2022-12-07T04:11:10;95585.72;;;2.42;90.60
10978;BME280;5542;48.272;10.794;2022-12-07T04:13:37;95592.09;;;2.39;90.83
10978;BME280;5542;48.272;10.794;2022-12-07T04:16:17;95589.31;;;2.41;90.88
10978;BME280;5542;48.272;10.794;2022-12-07T04:18:46;95586.09;;;2.39;90.30
10978;BME280;5542;48.272;10.794;2022-12-07T04:21:12;95579.00;;;2.33;90.34
10978;BME280;5542;48.272;10.794;2022-12-07T04:23:39;95586.81;;;2.33;90.33
10978;BME280;5542;48.272;10.794;2022-12-07T04:26:05;95576.41;;;2.33;90.65
10978;BME280;5542;48.272;10.794;2022-12-07T04:28:32;95583.25;;;2.34;90.82
10978;BME280;5542;48.272;10.794;2022-12-07T04:30:59;95576.06;;;2.36;90.68
10978;BME280;5542;48.272;10.794;2022-12-07T04:33:25;95570.88;;;2.36;90.94
10978;BME280;5542;48.272;10.794;2022-12-07T04:35:53;95573.94;;;2.39;90.69
10978;BME280;5542;48.272;10.794;2022-12-07T04:38:20;95563.72;;;2.38;90.22
10978;BME280;5542;48.272;10.794;2022-12-07T04:40:46;95573.47;;;2.36;90.31
10978;BME280;5542;48.272;10.794;2022-12-07T04:43:13;95581.44;;;2.34;90.54
10978;BME280;5542;48.272;10.794;2022-12-07T04:45:40;95575.72;;;2.39;90.82
10978;BME280;5542;48.272;10.794;2022-12-07T04:48:11;95574.91;;;2.38;90.22
10978;BME280;5542;48.272;10.794;2022-12-07T04:50:37;95578.94;;;2.41;89.71
10978;BME280;5542;48.272;10.794;2022-12-07T04:53:05;95574.13;;;2.38;89.59
10978;BME280;5542;48.272;10.794;2022-12-07T04:55:32;95581.06;;;2.37;89.86
10978;BME280;5542;48.272;10.794;2022-12-07T04:57:59;95574.28;;;2.36;89.97
10978;BME280;5542;48.272;10.794;2022-12-07T05:00:25;95578.59;;;2.29;90.19
10978;BME280;5542;48.272;10.794;2022-12-07T05:02:52;95577.00;;;2.28;90.35
10978;BME280;5542;48.272;10.794;2022-12-07T05:05:18;95583.59;;;2.30;90.35
10978;BME280;5542;48.272;10.794;2022-12-07T05:07:45;95587.72;;;2.25;90.60
10978;BME280;5542;48.272;10.794;2022-12-07T05:10:13;95587.53;;;2.26;90.98
10978;BME280;5542;48.272;10.794;2022-12-07T05:12:40;95593.16;;;2.30;90.95
10978;BME280;5542;48.272;10.794;2022-12-07T05:15:07;95591.03;;;2.34;90.79
10978;BME280;5542;48.272;10.794;2022-12-07T05:17:33;95586.09;;;2.39;90.64
10978;BME280;5542;48.272;10.794;2022-12-07T05:20:00;95581.91;;;2.38;90.47
10978;BME280;5542;48.272;10.794;2022-12-07T05:22:27;95590.03;;;2.35;89.82
10978;BME280;5542;48.272;10.794;2022-12-07T05:24:53;95584.38;;;2.31;89.78
10978;BME280;5542;48.272;10.794;2022-12-07T05:27:21;95582.00;;;2.29;89.85
10978;BME280;5542;48.272;10.794;2022-12-07T05:29:49;95574.28;;;2.21;90.22
10978;BME280;5542;48.272;10.794;2022-12-07T05:32:17;95577.16;;;2.26;90.52
10978;BME280;5542;48.272;10.794;2022-12-07T05:34:44;95571.59;;;2.29;90.37
10978;BME280;5542;48.272;10.794;2022-12-07T05:37:10;95573.94;;;2.24;90.37
10978;BME280;5542;48.272;10.794;2022-12-07T05:39:37;95573.13;;;2.24;90.28
10978;BME280;5542;48.272;10.794;2022-12-07T05:42:06;95575.34;;;2.27;90.33
10978;BME280;5542;48.272;10.794;2022-12-07T05:44:40;95577.88;;;2.20;90.25
10978;BME280;5542;48.272;10.794;2022-12-07T05:47:08;95577.88;;;2.20;90.53
10978;BME280;5542;48.272;10.794;2022-12-07T05:49:35;95571.50;;;2.23;90.73
10978;BME280;5542;48.272;10.794;2022-12-07T05:52:02;95579.28;;;2.23;90.62
10978;BME280;5542;48.272;10.794;2022-12-07T05:54:29;95581.53;;;2.26;90.90
10978;BME280;5542;48.272;10.794;2022-12-07T05:56:56;95578.94;;;2.26;91.18
10978;BME280;5542;48.272;10.794;2022-12-07T05:59:23;95578.13;;;2.25;90.75
10978;BME280;5542;48.272;10.794;2022-12-07T06:01:50;95579.47;;;2.21;90.87
10978;BME280;5542;48.272;10.794;2022-12-07T06:04:18;95578.13;;;2.25;90.68
10978;BME280;5542;48.272;10.794;2022-12-07T06:06:44;95579.94;;;2.25;90.82
10978;BME280;5542;48.272;10.794;2022-12-07T06:09:11;95579.59;;;2.28;90.37
10978;BME280;5542;48.272;10.794;2022-12-07T06:11:38;95586.53;;;2.27;90.29
10978;BME280;5542;48.272;10.794;2022-12-07T06:14:22;95573.56;;;2.27;90.14
10978;BME280;5542;48.272;10.794;2022-12-07T06:16:50;95591.91;;;2.26;89.83
10978;BME280;5542;48.272;10.794;2022-12-07T06:19:17;95582.41;;;2.18;89.93
10978;BME280;5542;48.272;10.794;2022-12-07T06:21:44;95585.00;;;2.18;90.27
10978;BME280;5542;48.272;10.794;2022-12-07T06:24:12;95583.25;;;2.19;90.34
10978;BME280;5542;48.272;10.794;2022-12-07T06:26:38;95583.13;;;2.27;89.83
10978;BME280;5542;48.272;10.794;2022-12-07T06:29:05;95592.72;;;2.26;89.73
10978;BME280;5542;48.272;10.794;2022-12-07T06:31:32;95589.50;;;2.24;89.53
10978;BME280;5542;48.272;10.794;2022-12-07T06:34:01;95585.00;;;2.18;90.13
10978;BME280;5542;48.272;10.794;2022-12-07T06:36:29;95587.91;;;2.23;89.92
10978;BME280;5542;48.272;10.794;2022-12-07T06:38:56;95583.41;;;2.17;89.96
10978;BME280;5542;48.272;10.794;2022-12-07T06:41:23;95580.19;;;2.15;90.25
10978;BME280;5542;48.272;10.794;2022-12-07T06:43:50;95590.47;;;2.09;90.39
10978;BME280;5542;48.272;10.794;2022-12-07T06:46:17;95589.06;;;2.06;90.60
10978;BME280;5542;48.272;10.794;2022-12-07T06:48:43;95590.03;;;2.05;90.75
10978;BME280;5542;48.272;10.794;2022-12-07T06:51:11;95591.66;;;2.06;90.63
10978;BME280;5542;48.272;10.794;2022-12-07T06:53:38;95596.84;;;2.06;91.00
10978;BME280;5542;48.272;10.794;2022-12-07T06:56:05;95590.47;;;2.09;91.19
10978;BME280;5542;48.272;10.794;2022-12-07T06:58:32;95595.41;;;2.18;90.38
10978;BME280;5542;48.272;10.794;2022-12-07T07:00:58;95601.50;;;2.11;90.44
10978;BME280;5542;48.272;10.794;2022-12-07T07:03:25;95596.19;;;2.04;90.26
10978;BME280;5542;48.272;10.794;2022-12-07T07:05:52;95590.13;;;2.12;89.54
10978;BME280;5542;48.272;10.794;2022-12-07T07:08:20;95590.38;;;2.02;89.88
10978;BME280;5542;48.272;10.794;2022-12-07T07:10:47;95593.00;;;2.02;90.01
10978;BME280;5542;48.272;10.794;2022-12-07T07:13:13;95603.34;;;2.02;90.30
10978;BME280;5542;48.272;10.794;2022-12-07T07:15:40;95597.38;;;2.01;90.50
10978;BME280;5542;48.272;10.794;2022-12-07T07:18:07;95589.59;;;2.01;90.72
10978;BME280;5542;48.272;10.794;2022-12-07T07:20:33;95591.47;;;2.08;90.35
10978;BME280;5542;48.272;10.794;2022-12-07T07:23:00;95591.13;;;2.11;90.26
10978;BME280;5542;48.272;10.794;2022-12-07T07:25:29;95598.38;;;2.15;89.38
10978;BME280;5542;48.272;10.794;2022-12-07T07:27:56;95597.72;;;2.13;90.01
10978;BME280;5542;48.272;10.794;2022-12-07T07:30:23;95597.91;;;2.12;89.17
10978;BME280;5542;48.272;10.794;2022-12-07T07:32:50;95596.50;;;2.09;89.70
10978;BME280;5542;48.272;10.794;2022-12-07T07:35:16;95599.69;;;2.11;89.76
10978;BME280;5542;48.272;10.794;2022-12-07T07:37:43;95599.63;;;2.04;89.74
10978;BME280;5542;48.272;10.794;2022-12-07T07:40:10;95594.84;;;2.08;89.88
10978;BME280;5542;48.272;10.794;2022-12-07T07:42:38;95602.81;;;2.07;89.33
10978;BME280;5542;48.272;10.794;2022-12-07T07:45:06;95598.91;;;2.11;88.66
10978;BME280;5542;48.272;10.794;2022-12-07T07:47:33;95598.44;;;2.07;88.45
10978;BME280;5542;48.272;10.794;2022-12-07T07:49:59;95594.59;;;2.18;88.22
10978;BME280;5542;48.272;10.794;2022-12-07T07:52:26;95598.16;;;2.02;89.01
10978;BME280;5542;48.272;10.794;2022-12-07T07:54:52;95601.31;;;1.97;89.88
10978;BME280;5542;48.272;10.794;2022-12-07T07:57:19;95606.47;;;1.97;89.68
10978;BME280;5542;48.272;10.794;2022-12-07T07:59:47;95603.81;;;1.91;90.28
10978;BME280;5542;48.272;10.794;2022-12-07T08:02:15;95607.66;;;1.95;90.86
10978;BME280;5542;48.272;10.794;2022-12-07T08:04:43;95608.34;;;1.89;90.35
10978;BME280;5542;48.272;10.794;2022-12-07T08:07:09;95604.44;;;1.93;90.25
10978;BME280;5542;48.272;10.794;2022-12-07T08:09:37;95616.50;;;1.86;90.53
10978;BME280;5542;48.272;10.794;2022-12-07T08:12:04;95608.38;;;2.03;89.67
10978;BME280;5542;48.272;10.794;2022-12-07T08:14:31;95606.88;;;2.09;88.60
10978;BME280;5542;48.272;10.794;2022-12-07T08:17:00;95611.69;;;2.12;88.45
10978;BME280;5542;48.272;10.794;2022-12-07T08:19:26;95612.06;;;2.09;88.18
10978;BME280;5542;48.272;10.794;2022-12-07T08:21:53;95607.03;;;2.08;88.83
10978;BME280;5542;48.272;10.794;2022-12-07T08:24:21;95611.69;;;2.12;88.85
10978;BME280;5542;48.272;10.794;2022-12-07T08:26:48;95612.84;;;2.10;88.41
10978;BME280;5542;48.272;10.794;2022-12-07T08:29:15;95613.84;;;2.23;87.67
10978;BME280;5542;48.272;10.794;2022-12-07T08:31:42;95623.41;;;2.23;87.13
10978;BME280;5542;48.272;10.794;2022-12-07T08:34:11;95612.59;;;2.19;86.70
10978;BME280;5542;48.272;10.794;2022-12-07T08:36:39;95609.09;;;2.12;87.40
10978;BME280;5542;48.272;10.794;2022-12-07T08:39:05;95610.81;;;2.20;86.76
10978;BME280;5542;48.272;10.794;2022-12-07T08:41:33;95605.34;;;2.15;87.26
10978;BME280;5542;48.272;10.794;2022-12-07T08:43:59;95604.44;;;2.22;87.32
10978;BME280;5542;48.272;10.794;2022-12-07T08:46:30;95606.94;;;2.16;87.09
10978;BME280;5542;48.272;10.794;2022-12-07T08:49:04;95610.06;;;2.26;85.49
10978;BME280;5542;48.272;10.794;2022-12-07T08:51:32;95613.47;;;2.26;85.59
10978;BME280;5542;48.272;10.794;2022-12-07T08:54:01;95609.28;;;2.25;85.66
10978;BME280;5542;48.272;10.794;2022-12-07T08:56:30;95609.19;;;2.34;85.39
10978;BME280;5542;48.272;10.794;2022-12-07T08:58:57;95612.22;;;2.37;85.98
10978;BME280;5542;48.272;10.794;2022-12-07T09:01:24;95603.91;;;2.56;86.03
10978;BME280;5542;48.272;10.794;2022-12-07T09:03:50;95605.84;;;2.54;85.56
10978;BME280;5542;48.272;10.794;2022-12-07T09:06:17;95604.69;;;2.57;85.53
10978;BME280;5542;48.272;10.794;2022-12-07T09:08:47;95612.31;;;2.59;84.91
10978;BME280;5542;48.272;10.794;2022-12-07T09:11:16;95612.75;;;2.62;82.84
10978;BME280;5542;48.272;10.794;2022-12-07T09:13:43;95610.31;;;2.61;83.38
10978;BME280;5542;48.272;10.794;2022-12-07T09:16:09;95607.72;;;2.75;82.71
10978;BME280;5542;48.272;10.794;2022-12-07T09:18:36;95605.69;;;2.92;81.08
10978;BME280;5542;48.272;10.794;2022-12-07T09:21:03;95602.66;;;2.89;81.14
10978;BME280;5542;48.272;10.794;2022-12-07T09:23:30;95612.19;;;2.81;81.04
10978;BME280;5542;48.272;10.794;2022-12-07T09:26:00;95615.59;;;2.67;82.40
10978;BME280;5542;48.272;10.794;2022-12-07T09:28:27;95613.88;;;2.74;81.98
10978;BME280;5542;48.272;10.794;2022-12-07T09:30:53;95616.13;;;2.77;80.48
10978;BME280;5542;48.272;10.794;2022-12-07T09:33:20;95612.00;;;2.68;81.35
10978;BME280;5542;48.272;10.794;2022-12-07T09:35:48;95607.56;;;2.62;81.92
10978;BME280;5542;48.272;10.794;2022-12-07T09:38:16;95614.00;;;2.66;82.08
10978;BME280;5542;48.272;10.794;2022-12-07T09:40:43;95615.97;;;2.64;82.16
10978;BME280;5542;48.272;10.794;2022-12-07T09:43:14;95616.06;;;2.71;82.97
10978;BME280;5542;48.272;10.794;2022-12-07T09:45:42;95615.50;;;2.75;83.14
10978;BME280;5542;48.272;10.794;2022-12-07T09:48:14;95609.38;;;2.83;82.26
10978;BME280;5542;48.272;10.794;2022-12-07T09:50:43;95618.88;;;2.91;82.16
10978;BME280;5542;48.272;10.794;2022-12-07T09:53:13;95621.94;;;3.16;82.16
10978;BME280;5542;48.272;10.794;2022-12-07T09:55:41;95607.03;;;3.24;79.25
10978;BME280;5542;48.272;10.794;2022-12-07T09:58:19;95610.69;;;3.30;79.40
10978;BME280;5542;48.272;10.794;2022-12-07T10:00:47;95605.59;;;3.43;78.83
10978;BME280;5542;48.272;10.794;2022-12-07T10:03:14;95603.44;;;3.47;78.93
10978;BME280;5542;48.272;10.794;2022-12-07T10:05:44;95597.38;;;3.61;79.45
10978;BME280;5542;48.272;10.794;2022-12-07T10:08:12;95597.09;;;3.77;79.93
10978;BME280;5542;48.272;10.794;2022-12-07T10:10:41;95591.66;;;4.00;76.83
10978;BME280;5542;48.272;10.794;2022-12-07T10:13:08;95584.41;;;3.96;77.68
10978;BME280;5542;48.272;10.794;2022-12-07T10:15:43;95590.78;;;3.93;77.02
10978;BME280;5542;48.272;10.794;2022-12-07T10:18:19;95581.66;;;4.04;76.11
10978;BME280;5542;48.272;10.794;2022-12-07T10:20:47;95585.44;;;4.36;73.13
10978;BME280;5542;48.272;10.794;2022-12-07T10:23:15;95582.44;;;4.32;72.63
10978;BME280;5542;48.272;10.794;2022-12-07T10:25:43;95581.72;;;4.52;70.20
10978;BME280;5542;48.272;10.794;2022-12-07T10:28:13;95584.16;;;4.19;70.09
10978;BME280;5542;48.272;10.794;2022-12-07T10:30:50;95575.69;;;4.10;71.00
10978;BME280;5542;48.272;10.794;2022-12-07T10:33:28;95578.16;;;4.18;70.62
10978;BME280;5542;48.272;10.794;2022-12-07T10:35:55;95580.09;;;4.09;71.33
10978;BME280;5542;48.272;10.794;2022-12-07T10:38:24;95572.97;;;4.25;68.82
10978;BME280;5542;48.272;10.794;2022-12-07T10:41:03;95579.75;;;4.19;68.79
10978;BME280;5542;48.272;10.794;2022-12-07T10:43:30;95566.84;;;4.04;70.51
10978;BME280;5542;48.272;10.794;2022-12-07T10:46:18;95574.25;;;4.07;70.79
10978;BME280;5542;48.272;10.794;2022-12-07T10:48:56;95573.75;;;4.19;70.45
10978;BME280;5542;48.272;10.794;2022-12-07T10:51:28;95562.53;;;4.18;71.44
10978;BME280;5542;48.272;10.794;2022-12-07T10:54:10;95561.97;;;4.29;70.81
10978;BME280;5542;48.272;10.794;2022-12-07T10:57:01;95566.63;;;4.34;71.38
10978;BME280;5542;48.272;10.794;2022-12-07T10:59:50;95556.47;;;4.52;70.15
10978;BME280;5542;48.272;10.794;2022-12-07T11:02:25;95551.13;;;4.67;69.74
10978;BME280;5542;48.272;10.794;2022-12-07T11:05:04;95546.50;;;4.69;69.61
10978;BME280;5542;48.272;10.794;2022-12-07T11:07:43;95554.09;;;4.64;70.49
10978;BME280;5542;48.272;10.794;2022-12-07T11:10:17;95540.69;;;4.60;69.99
10978;BME280;5542;48.272;10.794;2022-12-07T11:13:04;95538.31;;;4.72;69.03
10978;BME280;5542;48.272;10.794;2022-12-07T11:15:50;95531.97;;;5.08;66.88
10978;BME280;5542;48.272;10.794;2022-12-07T11:18:24;95532.75;;;5.02;66.09
10978;BME280;5542;48.272;10.794;2022-12-07T11:20:56;95527.38;;;5.03;67.16
10978;BME280;5542;48.272;10.794;2022-12-07T11:23:35;95532.34;;;4.92;67.81
10978;BME280;5542;48.272;10.794;2022-12-07T11:26:16;95523.97;;;5.09;66.73
10978;BME280;5542;48.272;10.794;2022-12-07T11:29:03;95511.94;;;5.15;66.69
10978;BME280;5542;48.272;10.794;2022-12-07T11:31:36;95519.91;;;4.94;68.01
10978;BME280;5542;48.272;10.794;2022-12-07T11:34:10;95509.13;;;5.10;66.97
10978;BME280;5542;48.272;10.794;2022-12-07T11:36:43;95507.50;;;5.02;68.04
10978;BME280;5542;48.272;10.794;2022-12-07T11:39:19;95504.09;;;5.22;68.75
10978;BME280;5542;48.272;10.794;2022-12-07T11:41:48;95505.72;;;5.23;67.58
10978;BME280;5542;48.272;10.794;2022-12-07T11:44:24;95498.31;;;5.39;67.99
10978;BME280;5542;48.272;10.794;2022-12-07T11:46:58;95500.91;;;5.39;67.78
10978;BME280;5542;48.272;10.794;2022-12-07T11:49:39;95493.09;;;5.53;67.89
10978;BME280;5542;48.272;10.794;2022-12-07T11:52:14;95495.88;;;5.58;67.03
10978;BME280;5542;48.272;10.794;2022-12-07T11:54:46;95495.47;;;5.41;67.78
10978;BME280;5542;48.272;10.794;2022-12-07T11:57:18;95495.72;;;5.46;67.58
10978;BME280;5542;48.272;10.794;2022-12-07T11:59:50;95498.50;;;5.38;69.11
10978;BME280;5542;48.272;10.794;2022-12-07T12:02:21;95496.09;;;5.36;69.45
10978;BME280;5542;48.272;10.794;2022-12-07T12:04:55;95488.06;;;5.45;67.93
10978;BME280;5542;48.272;10.794;2022-12-07T12:07:26;95498.50;;;5.38;68.05
10978;BME280;5542;48.272;10.794;2022-12-07T12:10:04;95490.66;;;5.31;68.02
10978;BME280;5542;48.272;10.794;2022-12-07T12:12:44;95493.69;;;5.22;67.84
10978;BME280;5542;48.272;10.794;2022-12-07T12:15:34;95484.47;;;5.19;68.71
10978;BME280;5542;48.272;10.794;2022-12-07T12:18:13;95486.84;;;5.21;68.05
10978;BME280;5542;48.272;10.794;2022-12-07T12:20:50;95481.25;;;5.17;68.34
10978;BME280;5542;48.272;10.794;2022-12-07T12:23:21;95476.25;;;5.22;67.98
10978;BME280;5542;48.272;10.794;2022-12-07T12:25:50;95475.84;;;5.32;67.13
10978;BME280;5542;48.272;10.794;2022-12-07T12:28:23;95477.84;;;5.10;68.40
10978;BME280;5542;48.272;10.794;2022-12-07T12:31:12;95470.81;;;5.17;67.23
10978;BME280;5542;48.272;10.794;2022-12-07T12:33:43;95479.84;;;4.95;67.96
10978;BME280;5542;48.272;10.794;2022-12-07T12:36:24;95473.38;;;4.77;68.07
10978;BME280;5542;48.272;10.794;2022-12-07T12:39:09;95476.03;;;4.91;68.97
10978;BME280;5542;48.272;10.794;2022-12-07T12:41:55;95472.41;;;4.98;69.27
10978;BME280;5542;48.272;10.794;2022-12-07T12:47:56;95481.03;;;5.12;66.02
10978;BME280;5542;48.272;10.794;2022-12-07T12:50:27;95476.63;;;4.93;66.85
10978;BME280;5542;48.272;10.794;2022-12-07T12:53:12;95479.84;;;4.95;67.84
10978;BME280;5542;48.272;10.794;2022-12-07T12:56:07;95475.81;;;4.92;67.96
10978;BME280;5542;48.272;10.794;2022-12-07T12:58:39;95474.41;;;4.90;67.55
10978;BME280;5542;48.272;10.794;2022-12-07T13:04:34;95470.63;;;5.05;67.77
10978;BME280;5542;48.272;10.794;2022-12-07T13:07:03;95462.78;;;5.12;66.67
10978;BME280;5542;48.272;10.794;2022-12-07T13:09:33;95461.78;;;5.06;65.76
10978;BME280;5542;48.272;10.794;2022-12-07T13:12:04;95462.97;;;4.77;68.33
10978;BME280;5542;48.272;10.794;2022-12-07T13:14:40;95457.53;;;4.79;69.28
10978;BME280;5542;48.272;10.794;2022-12-07T13:17:09;95461.19;;;4.84;68.40
10978;BME280;5542;48.272;10.794;2022-12-07T13:19:57;95454.56;;;4.88;67.98
10978;BME280;5542;48.272;10.794;2022-12-07T13:25:35;95449.56;;;4.80;69.49
10978;BME280;5542;48.272;10.794;2022-12-07T13:28:10;95447.94;;;4.86;69.66
10978;BME280;5542;48.272;10.794;2022-12-07T13:30:46;95447.75;;;4.87;68.97
10978;BME280;5542;48.272;10.794;2022-12-07T13:33:14;95447.34;;;4.97;68.41
10978;BME280;5542;48.272;10.794;2022-12-07T13:35:43;95446.94;;;4.87;68.56